sensor_id;sensor_type;location;lat;lon;timestamp;P1;durP1;ratioP1;P2;durP2;ratioP2
54430;SDS011;40342;52.998;5.862;2022-11-20T00:01:07;10.73;;;8.63;;
54430;SDS011;40342;52.998;5.862;2022-11-20T00:03:44;10.60;;;9.50;;
54430;SDS011;40342;52.998;5.862;2022-11-20T00:06:11;10.90;;;9.77;;
54430;SDS011;40342;52.998;5.862;2022-11-20T00:08:38;11.15;;;9.65;;
54430;SDS011;40342;52.998;5.862;2022-11-20T00:11:05;10.50;;;8.98;;
54430;SDS011;40342;52.998;5.862;2022-11-20T00:13:32;10.57;;;8.95;;
54430;SDS011;40342;52.998;5.862;2022-11-20T00:15:59;9.38;;;8.45;;
54430;SDS011;40342;52.998;5.862;2022-11-20T00:18:26;12.05;;;9.75;;
54430;SDS011;40342;52.998;5.862;2022-11-20T00:20:52;11.32;;;9.35;;
54430;SDS011;40342;52.998;5.862;2022-11-20T00:23:18;11.18;;;9.38;;
54430;SDS011;40342;52.998;5.862;2022-11-20T00:25:44;11.75;;;8.85;;
54430;SDS011;40342;52.998;5.862;2022-11-20T00:28:09;10.13;;;9.07;;
54430;SDS011;40342;52.998;5.862;2022-11-20T00:30:35;12.13;;;9.60;;
54430;SDS011;40342;52.998;5.862;2022-11-20T00:33:00;9.75;;;8.57;;
54430;SDS011;40342;52.998;5.862;2022-11-20T00:35:26;10.70;;;8.82;;
54430;SDS011;40342;52.998;5.862;2022-11-20T00:37:51;10.90;;;9.18;;
54430;SDS011;40342;52.998;5.862;2022-11-20T00:40:17;10.60;;;8.82;;
54430;SDS011;40342;52.998;5.862;2022-11-20T00:42:42;10.35;;;9.07;;
54430;SDS011;40342;52.998;5.862;2022-11-20T00:45:08;13.15;;;10.15;;
54430;SDS011;40342;52.998;5.862;2022-11-20T00:47:33;10.40;;;9.23;;
54430;SDS011;40342;52.998;5.862;2022-11-20T00:49:59;11.07;;;9.90;;
54430;SDS011;40342;52.998;5.862;2022-11-20T00:52:25;11.07;;;8.20;;
54430;SDS011;40342;52.998;5.862;2022-11-20T00:54:50;10.65;;;9.27;;
54430;SDS011;40342;52.998;5.862;2022-11-20T00:57:16;11.43;;;9.48;;
54430;SDS011;40342;52.998;5.862;2022-11-20T00:59:41;10.38;;;9.32;;
54430;SDS011;40342;52.998;5.862;2022-11-20T01:02:07;10.27;;;8.75;;
54430;SDS011;40342;52.998;5.862;2022-11-20T01:04:32;12.85;;;9.43;;
54430;SDS011;40342;52.998;5.862;2022-11-20T01:06:58;10.93;;;9.10;;
54430;SDS011;40342;52.998;5.862;2022-11-20T01:09:23;9.98;;;8.75;;
54430;SDS011;40342;52.998;5.862;2022-11-20T01:11:49;11.05;;;8.07;;
54430;SDS011;40342;52.998;5.862;2022-11-20T01:14:15;10.32;;;8.52;;
54430;SDS011;40342;52.998;5.862;2022-11-20T01:16:47;10.75;;;8.88;;
54430;SDS011;40342;52.998;5.862;2022-11-20T01:19:15;10.20;;;8.18;;
54430;SDS011;40342;52.998;5.862;2022-11-20T01:21:47;9.35;;;8.27;;
54430;SDS011;40342;52.998;5.862;2022-11-20T01:24:15;9.82;;;8.68;;
54430;SDS011;40342;52.998;5.862;2022-11-20T01:26:43;11.82;;;10.05;;
54430;SDS011;40342;52.998;5.862;2022-11-20T01:29:13;11.25;;;9.70;;
54430;SDS011;40342;52.998;5.862;2022-11-20T01:31:40;12.30;;;9.55;;
54430;SDS011;40342;52.998;5.862;2022-11-20T01:34:08;12.20;;;10.48;;
54430;SDS011;40342;52.998;5.862;2022-11-20T01:36:36;13.13;;;10.13;;
54430;SDS011;40342;52.998;5.862;2022-11-20T01:39:03;16.45;;;11.48;;
54430;SDS011;40342;52.998;5.862;2022-11-20T01:41:32;15.25;;;11.90;;
54430;SDS011;40342;52.998;5.862;2022-11-20T01:44:19;13.32;;;11.05;;
54430;SDS011;40342;52.998;5.862;2022-11-20T01:46:57;12.02;;;10.18;;
54430;SDS011;40342;52.998;5.862;2022-11-20T01:49:27;11.25;;;9.80;;
54430;SDS011;40342;52.998;5.862;2022-11-20T01:52:03;11.85;;;10.13;;
54430;SDS011;40342;52.998;5.862;2022-11-20T01:54:40;12.50;;;10.40;;
54430;SDS011;40342;52.998;5.862;2022-11-20T01:57:18;12.45;;;9.65;;
54430;SDS011;40342;52.998;5.862;2022-11-20T01:59:47;10.88;;;9.32;;
54430;SDS011;40342;52.998;5.862;2022-11-20T02:02:32;12.48;;;9.63;;
54430;SDS011;40342;52.998;5.862;2022-11-20T02:05:00;12.60;;;10.93;;
54430;SDS011;40342;52.998;5.862;2022-11-20T02:07:34;11.23;;;10.05;;
54430;SDS011;40342;52.998;5.862;2022-11-20T02:10:00;11.68;;;10.35;;
54430;SDS011;40342;52.998;5.862;2022-11-20T02:12:26;12.82;;;9.95;;
54430;SDS011;40342;52.998;5.862;2022-11-20T02:15:11;10.98;;;9.80;;
54430;SDS011;40342;52.998;5.862;2022-11-20T02:17:36;12.35;;;10.13;;
54430;SDS011;40342;52.998;5.862;2022-11-20T02:20:02;11.75;;;10.55;;
54430;SDS011;40342;52.998;5.862;2022-11-20T02:22:31;12.95;;;10.38;;
54430;SDS011;40342;52.998;5.862;2022-11-20T02:25:03;10.30;;;9.20;;
54430;SDS011;40342;52.998;5.862;2022-11-20T02:27:31;11.65;;;10.35;;
54430;SDS011;40342;52.998;5.862;2022-11-20T02:29:58;11.43;;;9.77;;
54430;SDS011;40342;52.998;5.862;2022-11-20T02:32:28;12.63;;;10.50;;
54430;SDS011;40342;52.998;5.862;2022-11-20T02:34:58;12.77;;;11.13;;
54430;SDS011;40342;52.998;5.862;2022-11-20T02:37:32;12.10;;;10.80;;
54430;SDS011;40342;52.998;5.862;2022-11-20T02:40:00;12.98;;;11.07;;
54430;SDS011;40342;52.998;5.862;2022-11-20T02:42:25;12.73;;;10.77;;
54430;SDS011;40342;52.998;5.862;2022-11-20T02:44:51;12.80;;;10.88;;
54430;SDS011;40342;52.998;5.862;2022-11-20T02:47:16;13.98;;;12.15;;
54430;SDS011;40342;52.998;5.862;2022-11-20T02:49:42;11.93;;;10.38;;
54430;SDS011;40342;52.998;5.862;2022-11-20T02:52:07;13.50;;;11.02;;
54430;SDS011;40342;52.998;5.862;2022-11-20T02:54:33;12.07;;;10.68;;
54430;SDS011;40342;52.998;5.862;2022-11-20T02:56:59;12.05;;;10.60;;
54430;SDS011;40342;52.998;5.862;2022-11-20T02:59:24;11.52;;;10.23;;
54430;SDS011;40342;52.998;5.862;2022-11-20T03:01:50;11.85;;;10.65;;
54430;SDS011;40342;52.998;5.862;2022-11-20T03:04:15;11.52;;;10.07;;
54430;SDS011;40342;52.998;5.862;2022-11-20T03:06:41;12.10;;;9.90;;
54430;SDS011;40342;52.998;5.862;2022-11-20T03:09:06;11.65;;;10.45;;
54430;SDS011;40342;52.998;5.862;2022-11-20T03:11:32;11.38;;;10.05;;
54430;SDS011;40342;52.998;5.862;2022-11-20T03:14:00;13.40;;;10.95;;
54430;SDS011;40342;52.998;5.862;2022-11-20T03:16:27;11.82;;;10.32;;
54430;SDS011;40342;52.998;5.862;2022-11-20T03:18:52;13.50;;;10.75;;
54430;SDS011;40342;52.998;5.862;2022-11-20T03:21:18;15.02;;;10.75;;
54430;SDS011;40342;52.998;5.862;2022-11-20T03:23:44;12.00;;;10.52;;
54430;SDS011;40342;52.998;5.862;2022-11-20T03:26:14;12.20;;;10.57;;
54430;SDS011;40342;52.998;5.862;2022-11-20T03:28:41;11.43;;;10.20;;
54430;SDS011;40342;52.998;5.862;2022-11-20T03:31:11;11.13;;;10.00;;
54430;SDS011;40342;52.998;5.862;2022-11-20T03:33:38;12.43;;;10.43;;
54430;SDS011;40342;52.998;5.862;2022-11-20T03:36:06;13.15;;;10.02;;
54430;SDS011;40342;52.998;5.862;2022-11-20T03:38:33;11.90;;;10.70;;
54430;SDS011;40342;52.998;5.862;2022-11-20T03:41:03;11.20;;;9.85;;
54430;SDS011;40342;52.998;5.862;2022-11-20T03:43:31;10.85;;;9.63;;
54430;SDS011;40342;52.998;5.862;2022-11-20T03:45:57;9.82;;;8.80;;
54430;SDS011;40342;52.998;5.862;2022-11-20T03:48:23;11.25;;;10.07;;
54430;SDS011;40342;52.998;5.862;2022-11-20T03:50:49;10.85;;;9.75;;
54430;SDS011;40342;52.998;5.862;2022-11-20T03:53:16;10.98;;;9.30;;
54430;SDS011;40342;52.998;5.862;2022-11-20T03:55:42;11.95;;;9.50;;
54430;SDS011;40342;52.998;5.862;2022-11-20T03:58:08;13.07;;;10.48;;
54430;SDS011;40342;52.998;5.862;2022-11-20T04:00:34;12.35;;;10.63;;
54430;SDS011;40342;52.998;5.862;2022-11-20T04:03:00;11.38;;;10.10;;
54430;SDS011;40342;52.998;5.862;2022-11-20T04:05:26;10.02;;;9.02;;
54430;SDS011;40342;52.998;5.862;2022-11-20T04:07:51;12.18;;;9.75;;
54430;SDS011;40342;52.998;5.862;2022-11-20T04:10:17;12.32;;;9.80;;
54430;SDS011;40342;52.998;5.862;2022-11-20T04:12:43;10.02;;;9.02;;
54430;SDS011;40342;52.998;5.862;2022-11-20T04:15:08;11.43;;;9.82;;
54430;SDS011;40342;52.998;5.862;2022-11-20T04:17:34;11.18;;;9.93;;
54430;SDS011;40342;52.998;5.862;2022-11-20T04:20:00;13.73;;;9.98;;
54430;SDS011;40342;52.998;5.862;2022-11-20T04:22:25;11.05;;;9.80;;
54430;SDS011;40342;52.998;5.862;2022-11-20T04:24:51;11.57;;;10.35;;
54430;SDS011;40342;52.998;5.862;2022-11-20T04:27:17;11.80;;;10.15;;
54430;SDS011;40342;52.998;5.862;2022-11-20T04:29:42;12.75;;;10.43;;
54430;SDS011;40342;52.998;5.862;2022-11-20T04:32:08;11.55;;;10.35;;
54430;SDS011;40342;52.998;5.862;2022-11-20T04:34:33;11.80;;;10.52;;
54430;SDS011;40342;52.998;5.862;2022-11-20T04:36:59;11.82;;;10.60;;
54430;SDS011;40342;52.998;5.862;2022-11-20T04:39:25;12.40;;;10.40;;
54430;SDS011;40342;52.998;5.862;2022-11-20T04:41:51;11.15;;;9.75;;
54430;SDS011;40342;52.998;5.862;2022-11-20T04:44:36;11.25;;;9.40;;
54430;SDS011;40342;52.998;5.862;2022-11-20T04:47:02;11.52;;;10.35;;
54430;SDS011;40342;52.998;5.862;2022-11-20T04:49:27;13.77;;;11.02;;
54430;SDS011;40342;52.998;5.862;2022-11-20T04:51:53;11.48;;;10.35;;
54430;SDS011;40342;52.998;5.862;2022-11-20T04:54:18;12.25;;;11.05;;
54430;SDS011;40342;52.998;5.862;2022-11-20T04:56:47;13.60;;;11.20;;
54430;SDS011;40342;52.998;5.862;2022-11-20T04:59:12;12.10;;;10.30;;
54430;SDS011;40342;52.998;5.862;2022-11-20T05:01:38;10.90;;;9.82;;
54430;SDS011;40342;52.998;5.862;2022-11-20T05:04:04;13.45;;;10.68;;
54430;SDS011;40342;52.998;5.862;2022-11-20T05:06:30;12.35;;;11.02;;
54430;SDS011;40342;52.998;5.862;2022-11-20T05:08:56;12.30;;;10.98;;
54430;SDS011;40342;52.998;5.862;2022-11-20T05:11:22;12.38;;;11.00;;
54430;SDS011;40342;52.998;5.862;2022-11-20T05:13:48;14.63;;;10.88;;
54430;SDS011;40342;52.998;5.862;2022-11-20T05:16:15;13.85;;;11.30;;
54430;SDS011;40342;52.998;5.862;2022-11-20T05:18:43;11.77;;;10.57;;
54430;SDS011;40342;52.998;5.862;2022-11-20T05:21:09;12.73;;;11.20;;
54430;SDS011;40342;52.998;5.862;2022-11-20T05:23:35;13.23;;;11.55;;
54430;SDS011;40342;52.998;5.862;2022-11-20T05:26:02;12.65;;;10.77;;
54430;SDS011;40342;52.998;5.862;2022-11-20T05:28:28;15.38;;;11.45;;
54430;SDS011;40342;52.998;5.862;2022-11-20T05:30:55;12.30;;;11.07;;
54430;SDS011;40342;52.998;5.862;2022-11-20T05:33:21;15.50;;;11.55;;
54430;SDS011;40342;52.998;5.862;2022-11-20T05:35:47;11.88;;;10.52;;
54430;SDS011;40342;52.998;5.862;2022-11-20T05:38:13;13.35;;;11.23;;
54430;SDS011;40342;52.998;5.862;2022-11-20T05:40:39;12.40;;;11.07;;
54430;SDS011;40342;52.998;5.862;2022-11-20T05:43:04;11.23;;;10.02;;
54430;SDS011;40342;52.998;5.862;2022-11-20T05:45:30;11.43;;;10.23;;
54430;SDS011;40342;52.998;5.862;2022-11-20T05:47:59;13.48;;;11.93;;
54430;SDS011;40342;52.998;5.862;2022-11-20T05:50:26;13.10;;;11.00;;
54430;SDS011;40342;52.998;5.862;2022-11-20T05:52:52;14.75;;;13.13;;
54430;SDS011;40342;52.998;5.862;2022-11-20T05:55:17;16.60;;;12.48;;
54430;SDS011;40342;52.998;5.862;2022-11-20T05:57:43;12.68;;;11.38;;
54430;SDS011;40342;52.998;5.862;2022-11-20T06:00:08;13.60;;;12.15;;
54430;SDS011;40342;52.998;5.862;2022-11-20T06:02:35;12.27;;;10.77;;
54430;SDS011;40342;52.998;5.862;2022-11-20T06:05:01;12.32;;;10.95;;
54430;SDS011;40342;52.998;5.862;2022-11-20T06:07:26;14.40;;;10.80;;
54430;SDS011;40342;52.998;5.862;2022-11-20T06:09:52;13.55;;;10.95;;
54430;SDS011;40342;52.998;5.862;2022-11-20T06:12:17;11.07;;;9.98;;
54430;SDS011;40342;52.998;5.862;2022-11-20T06:14:43;13.35;;;11.18;;
54430;SDS011;40342;52.998;5.862;2022-11-20T06:17:08;12.43;;;11.13;;
54430;SDS011;40342;52.998;5.862;2022-11-20T06:19:34;13.05;;;11.10;;
54430;SDS011;40342;52.998;5.862;2022-11-20T06:21:59;13.38;;;12.07;;
54430;SDS011;40342;52.998;5.862;2022-11-20T06:24:26;13.13;;;11.10;;
54430;SDS011;40342;52.998;5.862;2022-11-20T06:26:52;13.20;;;11.45;;
54430;SDS011;40342;52.998;5.862;2022-11-20T06:29:17;11.57;;;10.38;;
54430;SDS011;40342;52.998;5.862;2022-11-20T06:31:43;12.25;;;10.95;;
54430;SDS011;40342;52.998;5.862;2022-11-20T06:34:08;12.65;;;11.35;;
54430;SDS011;40342;52.998;5.862;2022-11-20T06:36:34;15.07;;;12.25;;
54430;SDS011;40342;52.998;5.862;2022-11-20T06:39:00;13.10;;;11.77;;
54430;SDS011;40342;52.998;5.862;2022-11-20T06:41:26;12.85;;;11.52;;
54430;SDS011;40342;52.998;5.862;2022-11-20T06:43:52;13.27;;;11.55;;
54430;SDS011;40342;52.998;5.862;2022-11-20T06:46:19;13.40;;;11.75;;
54430;SDS011;40342;52.998;5.862;2022-11-20T06:48:45;12.20;;;11.00;;
54430;SDS011;40342;52.998;5.862;2022-11-20T06:51:12;12.38;;;10.75;;
54430;SDS011;40342;52.998;5.862;2022-11-20T06:53:37;13.68;;;11.27;;
54430;SDS011;40342;52.998;5.862;2022-11-20T06:56:03;14.55;;;11.48;;
54430;SDS011;40342;52.998;5.862;2022-11-20T06:58:33;12.75;;;10.90;;
54430;SDS011;40342;52.998;5.862;2022-11-20T07:01:00;13.60;;;11.48;;
54430;SDS011;40342;52.998;5.862;2022-11-20T07:03:26;16.25;;;12.80;;
54430;SDS011;40342;52.998;5.862;2022-11-20T07:05:54;14.13;;;12.65;;
54430;SDS011;40342;52.998;5.862;2022-11-20T07:08:21;13.68;;;12.07;;
54430;SDS011;40342;52.998;5.862;2022-11-20T07:10:46;12.57;;;11.27;;
54430;SDS011;40342;52.998;5.862;2022-11-20T07:13:12;15.07;;;12.48;;
54430;SDS011;40342;52.998;5.862;2022-11-20T07:15:37;13.85;;;11.82;;
54430;SDS011;40342;52.998;5.862;2022-11-20T07:18:03;13.10;;;11.73;;
54430;SDS011;40342;52.998;5.862;2022-11-20T07:20:28;12.13;;;10.90;;
54430;SDS011;40342;52.998;5.862;2022-11-20T07:22:58;12.02;;;10.73;;
54430;SDS011;40342;52.998;5.862;2022-11-20T07:25:24;11.93;;;10.73;;
54430;SDS011;40342;52.998;5.862;2022-11-20T07:27:51;12.50;;;10.68;;
54430;SDS011;40342;52.998;5.862;2022-11-20T07:30:17;12.38;;;10.77;;
54430;SDS011;40342;52.998;5.862;2022-11-20T07:32:46;12.05;;;10.85;;
54430;SDS011;40342;52.998;5.862;2022-11-20T07:35:12;12.93;;;10.63;;
54430;SDS011;40342;52.998;5.862;2022-11-20T07:37:38;12.57;;;11.07;;
54430;SDS011;40342;52.998;5.862;2022-11-20T07:40:04;12.45;;;11.13;;
54430;SDS011;40342;52.998;5.862;2022-11-20T07:42:29;11.23;;;10.07;;
54430;SDS011;40342;52.998;5.862;2022-11-20T07:44:58;13.02;;;10.82;;
54430;SDS011;40342;52.998;5.862;2022-11-20T07:47:24;12.02;;;10.85;;
54430;SDS011;40342;52.998;5.862;2022-11-20T07:49:49;12.57;;;11.27;;
54430;SDS011;40342;52.998;5.862;2022-11-20T07:52:15;11.52;;;10.35;;
54430;SDS011;40342;52.998;5.862;2022-11-20T07:54:41;12.57;;;11.13;;
54430;SDS011;40342;52.998;5.862;2022-11-20T07:57:06;14.07;;;11.23;;
54430;SDS011;40342;52.998;5.862;2022-11-20T07:59:32;12.70;;;11.02;;
54430;SDS011;40342;52.998;5.862;2022-11-20T08:01:57;11.55;;;10.35;;
54430;SDS011;40342;52.998;5.862;2022-11-20T08:04:23;15.05;;;12.32;;
54430;SDS011;40342;52.998;5.862;2022-11-20T08:06:48;13.02;;;10.73;;
54430;SDS011;40342;52.998;5.862;2022-11-20T08:09:14;14.27;;;11.43;;
54430;SDS011;40342;52.998;5.862;2022-11-20T08:11:42;12.20;;;10.77;;
54430;SDS011;40342;52.998;5.862;2022-11-20T08:14:26;14.02;;;11.45;;
54430;SDS011;40342;52.998;5.862;2022-11-20T08:16:52;13.52;;;10.57;;
54430;SDS011;40342;52.998;5.862;2022-11-20T08:19:18;13.15;;;11.68;;
54430;SDS011;40342;52.998;5.862;2022-11-20T08:21:44;14.63;;;12.07;;
54430;SDS011;40342;52.998;5.862;2022-11-20T08:24:10;17.63;;;12.43;;
54430;SDS011;40342;52.998;5.862;2022-11-20T08:26:36;29.42;;;22.33;;
54430;SDS011;40342;52.998;5.862;2022-11-20T08:29:03;27.77;;;19.85;;
54430;SDS011;40342;52.998;5.862;2022-11-20T08:31:29;23.55;;;19.40;;
54430;SDS011;40342;52.998;5.862;2022-11-20T08:33:55;18.75;;;16.00;;
54430;SDS011;40342;52.998;5.862;2022-11-20T08:36:21;34.25;;;29.48;;
54430;SDS011;40342;52.998;5.862;2022-11-20T08:38:52;38.50;;;30.88;;
54430;SDS011;40342;52.998;5.862;2022-11-20T08:41:19;25.63;;;22.02;;
54430;SDS011;40342;52.998;5.862;2022-11-20T08:43:59;33.60;;;27.67;;
54430;SDS011;40342;52.998;5.862;2022-11-20T08:46:36;29.02;;;23.63;;
54430;SDS011;40342;52.998;5.862;2022-11-20T08:49:08;18.70;;;16.77;;
54430;SDS011;40342;52.998;5.862;2022-11-20T08:51:35;20.60;;;18.55;;
54430;SDS011;40342;52.998;5.862;2022-11-20T08:54:02;27.10;;;24.27;;
54430;SDS011;40342;52.998;5.862;2022-11-20T08:56:28;17.35;;;15.60;;
54430;SDS011;40342;52.998;5.862;2022-11-20T08:58:54;17.63;;;15.80;;
54430;SDS011;40342;52.998;5.862;2022-11-20T09:01:20;15.20;;;13.60;;
54430;SDS011;40342;52.998;5.862;2022-11-20T09:03:48;17.48;;;14.70;;
54430;SDS011;40342;52.998;5.862;2022-11-20T09:06:14;13.15;;;11.75;;
54430;SDS011;40342;52.998;5.862;2022-11-20T09:08:39;13.30;;;11.75;;
54430;SDS011;40342;52.998;5.862;2022-11-20T09:11:05;13.63;;;12.30;;
54430;SDS011;40342;52.998;5.862;2022-11-20T09:13:32;14.70;;;13.20;;
54430;SDS011;40342;52.998;5.862;2022-11-20T09:16:03;15.60;;;13.40;;
54430;SDS011;40342;52.998;5.862;2022-11-20T09:18:31;13.30;;;11.13;;
54430;SDS011;40342;52.998;5.862;2022-11-20T09:21:01;12.60;;;11.30;;
54430;SDS011;40342;52.998;5.862;2022-11-20T09:23:30;12.32;;;10.88;;
54430;SDS011;40342;52.998;5.862;2022-11-20T09:25:58;15.48;;;12.65;;
54430;SDS011;40342;52.998;5.862;2022-11-20T09:28:27;14.90;;;12.95;;
54430;SDS011;40342;52.998;5.862;2022-11-20T09:30:53;13.40;;;12.00;;
54430;SDS011;40342;52.998;5.862;2022-11-20T09:33:18;13.30;;;11.85;;
54430;SDS011;40342;52.998;5.862;2022-11-20T09:35:44;13.27;;;11.98;;
54430;SDS011;40342;52.998;5.862;2022-11-20T09:38:10;12.52;;;11.32;;
54430;SDS011;40342;52.998;5.862;2022-11-20T09:40:37;12.70;;;11.50;;
54430;SDS011;40342;52.998;5.862;2022-11-20T09:54:06;12.63;;;11.43;;
54430;SDS011;40342;52.998;5.862;2022-11-20T09:56:39;11.63;;;10.45;;
54430;SDS011;40342;52.998;5.862;2022-11-20T09:59:07;11.88;;;10.77;;
54430;SDS011;40342;52.998;5.862;2022-11-20T10:01:55;15.00;;;11.13;;
54430;SDS011;40342;52.998;5.862;2022-11-20T10:04:23;11.75;;;10.55;;
54430;SDS011;40342;52.998;5.862;2022-11-20T10:09:39;14.95;;;13.38;;
54430;SDS011;40342;52.998;5.862;2022-11-20T10:12:18;11.15;;;10.15;;
54430;SDS011;40342;52.998;5.862;2022-11-20T10:20:24;11.60;;;10.50;;
54430;SDS011;40342;52.998;5.862;2022-11-20T10:31:14;14.02;;;12.63;;
54430;SDS011;40342;52.998;5.862;2022-11-20T10:33:51;12.10;;;10.93;;
54430;SDS011;40342;52.998;5.862;2022-11-20T10:36:20;11.38;;;10.32;;
54430;SDS011;40342;52.998;5.862;2022-11-20T10:38:50;13.15;;;11.85;;
54430;SDS011;40342;52.998;5.862;2022-11-20T10:41:20;10.20;;;9.23;;
54430;SDS011;40342;52.998;5.862;2022-11-20T10:49:46;13.93;;;11.88;;
54430;SDS011;40342;52.998;5.862;2022-11-20T10:52:19;12.38;;;11.07;;
54430;SDS011;40342;52.998;5.862;2022-11-20T10:55:05;12.52;;;11.30;;
54430;SDS011;40342;52.998;5.862;2022-11-20T11:00:37;14.07;;;11.93;;
54430;SDS011;40342;52.998;5.862;2022-11-20T11:03:07;12.35;;;10.85;;
54430;SDS011;40342;52.998;5.862;2022-11-20T11:05:50;10.68;;;9.55;;
54430;SDS011;40342;52.998;5.862;2022-11-20T11:08:21;10.77;;;9.68;;
54430;SDS011;40342;52.998;5.862;2022-11-20T11:10:51;11.82;;;10.63;;
54430;SDS011;40342;52.998;5.862;2022-11-20T11:13:28;15.55;;;13.63;;
54430;SDS011;40342;52.998;5.862;2022-11-20T11:15:54;41.28;;;29.80;;
54430;SDS011;40342;52.998;5.862;2022-11-20T11:18:25;14.40;;;11.20;;
54430;SDS011;40342;52.998;5.862;2022-11-20T11:20:54;9.80;;;8.80;;
54430;SDS011;40342;52.998;5.862;2022-11-20T11:23:31;10.68;;;9.57;;
54430;SDS011;40342;52.998;5.862;2022-11-20T11:26:03;10.00;;;9.05;;
54430;SDS011;40342;52.998;5.862;2022-11-20T11:28:30;11.18;;;10.07;;
54430;SDS011;40342;52.998;5.862;2022-11-20T11:30:56;8.77;;;7.97;;
54430;SDS011;40342;52.998;5.862;2022-11-20T11:33:23;9.45;;;8.55;;
54430;SDS011;40342;52.998;5.862;2022-11-20T11:35:55;8.77;;;7.97;;
54430;SDS011;40342;52.998;5.862;2022-11-20T11:38:29;10.07;;;9.18;;
54430;SDS011;40342;52.998;5.862;2022-11-20T11:41:00;9.52;;;8.63;;
54430;SDS011;40342;52.998;5.862;2022-11-20T11:43:28;8.73;;;7.93;;
54430;SDS011;40342;52.998;5.862;2022-11-20T11:48:58;9.63;;;8.73;;
54430;SDS011;40342;52.998;5.862;2022-11-20T11:54:30;8.90;;;8.05;;
54430;SDS011;40342;52.998;5.862;2022-11-20T11:57:03;9.23;;;8.43;;
54430;SDS011;40342;52.998;5.862;2022-11-20T11:59:45;9.88;;;8.18;;
54430;SDS011;40342;52.998;5.862;2022-11-20T12:02:31;7.97;;;7.20;;
54430;SDS011;40342;52.998;5.862;2022-11-20T12:05:20;8.05;;;6.97;;
54430;SDS011;40342;52.998;5.862;2022-11-20T12:07:52;9.13;;;8.10;;
54430;SDS011;40342;52.998;5.862;2022-11-20T12:10:37;9.48;;;8.48;;
54430;SDS011;40342;52.998;5.862;2022-11-20T12:16:14;10.63;;;9.30;;
54430;SDS011;40342;52.998;5.862;2022-11-20T12:18:41;9.55;;;8.75;;
54430;SDS011;40342;52.998;5.862;2022-11-20T12:21:24;12.93;;;8.25;;
54430;SDS011;40342;52.998;5.862;2022-11-20T12:26:43;8.05;;;7.10;;
54430;SDS011;40342;52.998;5.862;2022-11-20T12:35:23;8.85;;;8.00;;
54430;SDS011;40342;52.998;5.862;2022-11-20T12:40:51;8.77;;;7.88;;
54430;SDS011;40342;52.998;5.862;2022-11-20T12:43:46;8.60;;;7.80;;
54430;SDS011;40342;52.998;5.862;2022-11-20T12:46:51;8.20;;;7.50;;
54430;SDS011;40342;52.998;5.862;2022-11-20T12:49:42;11.02;;;8.93;;
54430;SDS011;40342;52.998;5.862;2022-11-20T12:57:54;9.10;;;7.93;;
54430;SDS011;40342;52.998;5.862;2022-11-20T13:00:34;7.80;;;7.07;;
54430;SDS011;40342;52.998;5.862;2022-11-20T13:06:16;11.07;;;9.98;;
54430;SDS011;40342;52.998;5.862;2022-11-20T13:08:51;12.10;;;10.48;;
54430;SDS011;40342;52.998;5.862;2022-11-20T13:11:23;9.80;;;8.82;;
54430;SDS011;40342;52.998;5.862;2022-11-20T13:17:05;8.73;;;7.83;;
54430;SDS011;40342;52.998;5.862;2022-11-20T13:19:50;10.15;;;9.15;;
54430;SDS011;40342;52.998;5.862;2022-11-20T13:22:28;9.93;;;8.93;;
54430;SDS011;40342;52.998;5.862;2022-11-20T13:25:09;9.95;;;8.60;;
54430;SDS011;40342;52.998;5.862;2022-11-20T13:27:35;9.98;;;8.98;;
54430;SDS011;40342;52.998;5.862;2022-11-20T13:30:15;8.75;;;7.85;;
54430;SDS011;40342;52.998;5.862;2022-11-20T13:32:50;9.70;;;8.35;;
54430;SDS011;40342;52.998;5.862;2022-11-20T13:35:28;9.65;;;8.75;;
54430;SDS011;40342;52.998;5.862;2022-11-20T13:38:14;9.43;;;8.52;;
54430;SDS011;40342;52.998;5.862;2022-11-20T13:40:59;11.93;;;8.60;;
54430;SDS011;40342;52.998;5.862;2022-11-20T13:43:46;9.63;;;8.60;;
54430;SDS011;40342;52.998;5.862;2022-11-20T13:46:13;9.18;;;8.23;;
54430;SDS011;40342;52.998;5.862;2022-11-20T13:48:41;9.43;;;8.00;;
54430;SDS011;40342;52.998;5.862;2022-11-20T13:51:14;10.02;;;9.02;;
54430;SDS011;40342;52.998;5.862;2022-11-20T13:56:44;9.10;;;8.20;;
54430;SDS011;40342;52.998;5.862;2022-11-20T14:02:18;9.38;;;8.38;;
54430;SDS011;40342;52.998;5.862;2022-11-20T14:04:46;9.05;;;8.15;;
54430;SDS011;40342;52.998;5.862;2022-11-20T14:07:17;9.98;;;8.98;;
54430;SDS011;40342;52.998;5.862;2022-11-20T14:09:53;10.45;;;8.43;;
54430;SDS011;40342;52.998;5.862;2022-11-20T14:12:21;8.98;;;8.13;;
54430;SDS011;40342;52.998;5.862;2022-11-20T14:14:52;10.57;;;8.75;;
54430;SDS011;40342;52.998;5.862;2022-11-20T14:19:58;10.65;;;8.93;;
54430;SDS011;40342;52.998;5.862;2022-11-20T14:22:27;12.18;;;10.13;;
54430;SDS011;40342;52.998;5.862;2022-11-20T14:27:38;12.00;;;10.15;;
54430;SDS011;40342;52.998;5.862;2022-11-20T14:30:06;10.57;;;9.38;;
54430;SDS011;40342;52.998;5.862;2022-11-20T14:32:39;11.32;;;9.32;;
54430;SDS011;40342;52.998;5.862;2022-11-20T14:35:09;11.95;;;9.82;;
54430;SDS011;40342;52.998;5.862;2022-11-20T14:37:51;11.30;;;10.20;;
54430;SDS011;40342;52.998;5.862;2022-11-20T14:40:30;12.30;;;9.80;;
54430;SDS011;40342;52.998;5.862;2022-11-20T14:43:00;12.38;;;10.60;;
54430;SDS011;40342;52.998;5.862;2022-11-20T14:45:25;15.73;;;13.20;;
54430;SDS011;40342;52.998;5.862;2022-11-20T14:47:53;13.50;;;12.10;;
54430;SDS011;40342;52.998;5.862;2022-11-20T14:50:22;11.55;;;10.35;;
54430;SDS011;40342;52.998;5.862;2022-11-20T14:53:07;12.57;;;11.25;;
54430;SDS011;40342;52.998;5.862;2022-11-20T14:55:34;14.18;;;12.07;;
54430;SDS011;40342;52.998;5.862;2022-11-20T14:58:03;11.65;;;10.45;;
54430;SDS011;40342;52.998;5.862;2022-11-20T15:01:00;9.98;;;9.07;;
54430;SDS011;40342;52.998;5.862;2022-11-20T15:03:37;10.68;;;9.57;;
54430;SDS011;40342;52.998;5.862;2022-11-20T15:06:05;9.95;;;8.98;;
54430;SDS011;40342;52.998;5.862;2022-11-20T15:08:33;9.88;;;8.90;;
54430;SDS011;40342;52.998;5.862;2022-11-20T15:10:59;10.70;;;9.70;;
54430;SDS011;40342;52.998;5.862;2022-11-20T15:13:29;9.73;;;8.82;;
54430;SDS011;40342;52.998;5.862;2022-11-20T15:15:57;11.35;;;9.70;;
54430;SDS011;40342;52.998;5.862;2022-11-20T15:21:14;11.65;;;9.88;;
54430;SDS011;40342;52.998;5.862;2022-11-20T15:23:41;11.40;;;9.57;;
54430;SDS011;40342;52.998;5.862;2022-11-20T15:26:07;10.63;;;9.52;;
54430;SDS011;40342;52.998;5.862;2022-11-20T15:28:44;10.50;;;9.40;;
54430;SDS011;40342;52.998;5.862;2022-11-20T15:31:13;11.80;;;9.23;;
54430;SDS011;40342;52.998;5.862;2022-11-20T15:33:40;9.60;;;8.70;;
54430;SDS011;40342;52.998;5.862;2022-11-20T15:36:06;10.15;;;9.15;;
54430;SDS011;40342;52.998;5.862;2022-11-20T15:38:32;10.30;;;9.30;;
54430;SDS011;40342;52.998;5.862;2022-11-20T15:40:57;10.98;;;9.88;;
54430;SDS011;40342;52.998;5.862;2022-11-20T15:43:23;11.10;;;9.98;;
54430;SDS011;40342;52.998;5.862;2022-11-20T15:45:55;10.75;;;9.65;;
54430;SDS011;40342;52.998;5.862;2022-11-20T15:48:26;10.95;;;9.88;;
54430;SDS011;40342;52.998;5.862;2022-11-20T15:50:58;11.45;;;10.30;;
54430;SDS011;40342;52.998;5.862;2022-11-20T15:53:45;11.20;;;10.10;;
54430;SDS011;40342;52.998;5.862;2022-11-20T15:56:11;10.80;;;9.80;;
54430;SDS011;40342;52.998;5.862;2022-11-20T15:58:38;12.23;;;10.82;;
54430;SDS011;40342;52.998;5.862;2022-11-20T16:01:04;14.70;;;10.15;;
54430;SDS011;40342;52.998;5.862;2022-11-20T16:03:29;12.60;;;11.35;;